createdAt,value
2019-02-05T00:00:14.424Z,15.7
2019-02-05T00:01:16.848Z,15.6
2019-02-05T00:02:19.295Z,15.6
2019-02-05T00:03:21.475Z,15.7
2019-02-05T00:04:23.906Z,15.7
2019-02-05T00:05:26.346Z,15.6
2019-02-05T00:06:28.771Z,15.7
2019-02-05T00:07:31.192Z,15.6
2019-02-05T00:08:33.343Z,15.6
2019-02-05T00:09:35.819Z,15.7
2019-02-05T00:10:39.399Z,15.6
2019-02-05T00:11:41.945Z,15.7
2019-02-05T00:12:44.372Z,15.6
2019-02-05T00:13:46.221Z,15.8
2019-02-05T00:14:48.653Z,15.7
2019-02-05T00:15:50.811Z,15.7
2019-02-05T00:16:53.250Z,15.7
2019-02-05T00:17:55.670Z,15.7
2019-02-05T00:18:58.085Z,15.7
2019-02-05T00:20:00.605Z,15.7
2019-02-05T00:21:03.055Z,15.6
2019-02-05T00:22:06.756Z,15.7
2019-02-05T00:23:08.906Z,15.6
2019-02-05T00:24:11.325Z,15.7
2019-02-05T00:25:13.744Z,15.6
2019-02-05T00:26:16.169Z,15.8
2019-02-05T00:27:18.594Z,15.7
2019-02-05T00:28:21.037Z,15.8
2019-02-05T00:29:23.476Z,15.7
2019-02-05T00:30:25.973Z,15.7
2019-02-05T00:31:28.519Z,15.7
2019-02-05T00:32:30.711Z,15.8
2019-02-05T00:33:33.703Z,15.8
2019-02-05T00:34:36.135Z,15.8
2019-02-05T00:35:38.557Z,15.7
2019-02-05T00:36:40.985Z,15.9
2019-02-05T00:37:43.465Z,15.9
2019-02-05T00:38:45.897Z,15.9
2019-02-05T00:39:48.316Z,15.9
2019-02-05T00:40:50.471Z,16
2019-02-05T00:41:52.903Z,15.9
2019-02-05T00:42:55.364Z,16
2019-02-05T00:43:58.334Z,16
2019-02-05T00:45:00.841Z,15.9
2019-02-05T00:46:03.263Z,15.9
2019-02-05T00:47:05.399Z,15.9
2019-02-05T00:48:07.560Z,15.8
2019-02-05T00:49:10.015Z,16
2019-02-05T00:50:12.168Z,15.7
2019-02-05T00:51:14.585Z,15.8
2019-02-05T00:52:16.447Z,16
2019-02-05T00:53:18.875Z,15.9
2019-02-05T00:54:21.586Z,15.9
2019-02-05T00:55:24.876Z,16
2019-02-05T00:56:26.475Z,15.9
2019-02-05T00:57:28.899Z,16
2019-02-05T00:58:30.782Z,16.1
2019-02-05T00:59:33.212Z,16.1
2019-02-05T01:00:35.637Z,16
2019-02-05T01:01:38.154Z,16.1
2019-02-05T01:02:40.286Z,16.1
2019-02-05T01:03:42.705Z,16.1
2019-02-05T01:04:45.204Z,16.1
2019-02-05T01:05:47.925Z,16.1
2019-02-05T01:06:51.125Z,16.2
2019-02-05T01:07:53.560Z,16
2019-02-05T01:08:55.983Z,16
2019-02-05T01:09:58.119Z,16.1
2019-02-05T01:11:00.544Z,16
2019-02-05T01:12:02.464Z,16
2019-02-05T01:13:04.931Z,16
2019-02-05T01:14:07.355Z,15.9
2019-02-05T01:15:09.773Z,16
2019-02-05T01:16:12.521Z,16.1
2019-02-05T01:17:15.144Z,15.9
2019-02-05T01:18:18.525Z,16
2019-02-05T01:19:20.944Z,16.1
2019-02-05T01:20:23.099Z,15.9
2019-02-05T01:21:25.525Z,15.9
2019-02-05T01:22:27.655Z,16.2
2019-02-05T01:23:30.073Z,16.1
2019-02-05T01:24:32.233Z,16.1
2019-02-05T01:25:34.706Z,16.1
2019-02-05T01:26:36.866Z,16.2
2019-02-05T01:27:39.344Z,16.1
2019-02-05T01:28:42.310Z,16.1
2019-02-05T01:29:45.047Z,16.2
2019-02-05T01:30:47.595Z,16.1
2019-02-05T01:31:50.021Z,16.2
2019-02-05T01:32:52.465Z,16.1
2019-02-05T01:33:54.891Z,16.1
2019-02-05T01:34:57.313Z,16.1
2019-02-05T01:35:59.443Z,16
2019-02-05T01:37:01.605Z,16
2019-02-05T01:38:04.033Z,16.1
2019-02-05T01:39:06.771Z,16
2019-02-05T01:40:09.665Z,16
2019-02-05T01:41:11.826Z,16.1
2019-02-05T01:42:14.266Z,16.1
2019-02-05T01:43:16.708Z,16.1
2019-02-05T01:44:19.132Z,16.2
2019-02-05T01:45:21.292Z,16.1
2019-02-05T01:46:23.732Z,16.1
2019-02-05T01:47:25.900Z,16.1
2019-02-05T01:48:27.502Z,16.1
2019-02-05T01:49:29.594Z,16.1
2019-02-05T01:50:31.563Z,16.1
2019-02-05T01:51:35.136Z,16.2
2019-02-05T01:52:37.283Z,16.2
2019-02-05T01:53:39.444Z,16.2
2019-02-05T01:54:41.874Z,16.2
2019-02-05T01:55:44.301Z,16.1
2019-02-05T01:56:46.724Z,16.2
2019-02-05T01:57:48.584Z,16.3
2019-02-05T01:58:51.006Z,16.2
2019-02-05T01:59:53.164Z,16.3
2019-02-05T02:00:55.743Z,16.3
2019-02-05T02:01:58.734Z,16.2
2019-02-05T02:03:01.346Z,16.3
2019-02-05T02:04:03.241Z,16.3
2019-02-05T02:05:05.661Z,16.3
2019-02-05T02:06:08.089Z,16.3
2019-02-05T02:07:10.242Z,16.3
2019-02-05T02:08:12.663Z,16.4
2019-02-05T02:09:14.814Z,16.2
2019-02-05T02:10:16.954Z,16.3
2019-02-05T02:11:19.486Z,16.3
2019-02-05T02:12:21.980Z,16.4
2019-02-05T02:13:24.606Z,16.3
2019-02-05T02:14:27.044Z,16.3
2019-02-05T02:15:29.470Z,16.4
2019-02-05T02:16:31.916Z,16.3
2019-02-05T02:17:34.365Z,16.3
2019-02-05T02:18:36.796Z,16.3
2019-02-05T02:19:38.975Z,16.3
2019-02-05T02:20:41.394Z,16.4
2019-02-05T02:21:43.836Z,16.3
2019-02-05T02:22:46.327Z,16.3
2019-02-05T02:23:49.819Z,16.4
2019-02-05T02:24:51.982Z,16.4
2019-02-05T02:25:54.141Z,16.3
2019-02-05T02:26:56.286Z,16.4
2019-02-05T02:27:58.708Z,16.4
2019-02-05T02:29:01.145Z,16.3
2019-02-05T02:30:03.290Z,16.4
2019-02-05T02:31:05.712Z,16.4
2019-02-05T02:32:08.144Z,16.6
2019-02-05T02:33:10.570Z,16.4
2019-02-05T02:34:12.726Z,16.4
2019-02-05T02:35:16.021Z,16.5
2019-02-05T02:36:18.177Z,16.4
2019-02-05T02:37:20.305Z,16.6
2019-02-05T02:38:22.476Z,16.5
2019-02-05T02:39:24.628Z,16.4
2019-02-05T02:40:26.763Z,16.5
2019-02-05T02:41:28.644Z,16.4
2019-02-05T02:42:31.093Z,16.4
2019-02-05T02:43:33.524Z,16.4
2019-02-05T02:44:35.957Z,16.3
2019-02-05T02:45:38.945Z,16.4
2019-02-05T02:46:41.390Z,16.4
2019-02-05T02:47:43.822Z,16.5
2019-02-05T02:48:46.241Z,16.4
2019-02-05T02:49:48.753Z,16.5
2019-02-05T02:50:51.179Z,16.5
2019-02-05T02:51:53.044Z,16.4
2019-02-05T02:52:55.216Z,16.4
2019-02-05T02:53:57.360Z,16.5
2019-02-05T02:54:59.785Z,16.4
2019-02-05T02:56:02.934Z,16.4
2019-02-05T02:57:06.411Z,16.5
2019-02-05T02:58:08.573Z,16.5
2019-02-05T02:59:10.832Z,16.6
2019-02-05T03:00:13.260Z,16.4
2019-02-05T03:01:15.732Z,16.4
2019-02-05T03:02:18.158Z,16.6
2019-02-05T03:03:20.334Z,16.4
2019-02-05T03:04:22.765Z,16.4
2019-02-05T03:05:24.957Z,16.6
2019-02-05T03:06:27.399Z,16.5
2019-02-05T03:07:30.675Z,16.6
2019-02-05T03:08:32.874Z,16.4
2019-02-05T03:09:35.313Z,16.4
2019-02-05T03:10:37.463Z,16.4
2019-02-05T03:11:39.706Z,16.5
2019-02-05T03:12:41.863Z,16.5
2019-02-05T03:13:44.292Z,16.5
2019-02-05T03:14:46.715Z,16.6
2019-02-05T03:15:49.248Z,16.5
2019-02-05T03:16:51.764Z,16.5
2019-02-05T03:17:55.255Z,16.5
2019-02-05T03:18:57.728Z,16.4
2019-02-05T03:20:00.394Z,16.6
2019-02-05T03:21:03.094Z,16.4
2019-02-05T03:22:05.525Z,16.4
2019-02-05T03:23:07.955Z,16.4
2019-02-05T03:24:10.420Z,16.6
2019-02-05T03:25:13.099Z,16.4
2019-02-05T03:26:15.502Z,16.5
2019-02-05T03:27:19.100Z,16.5
2019-02-05T03:28:21.935Z,16.7
2019-02-05T03:29:24.357Z,16.5
2019-02-05T03:30:27.155Z,16.5
2019-02-05T03:31:29.152Z,16.5
2019-02-05T03:32:31.595Z,16.5
2019-02-05T03:33:34.035Z,16.6
2019-02-05T03:34:36.475Z,16.5
2019-02-05T03:35:38.985Z,16.6
2019-02-05T03:36:41.476Z,16.5
2019-02-05T03:37:44.264Z,16.5
2019-02-05T03:38:47.418Z,16.5
2019-02-05T03:39:49.832Z,16.6
2019-02-05T03:40:51.990Z,16.6
2019-02-05T03:41:54.414Z,16.4
2019-02-05T03:42:56.854Z,16.4
2019-02-05T03:43:59.298Z,16.4
2019-02-05T03:45:01.741Z,16.5
2019-02-05T03:46:04.185Z,16.6
2019-02-05T03:47:06.898Z,16.5
2019-02-05T03:48:09.675Z,16.5
2019-02-05T03:49:12.085Z,16.6
2019-02-05T03:50:14.258Z,16.5
2019-02-05T03:51:16.404Z,16.6
2019-02-05T03:52:18.824Z,16.6
2019-02-05T03:53:20.711Z,16.6
2019-02-05T03:54:23.157Z,16.5
2019-02-05T03:55:25.602Z,16.5
2019-02-05T03:56:28.077Z,16.5
2019-02-05T03:58:35.510Z,16.4
2019-02-05T03:59:38.982Z,16.4
2019-02-05T04:00:41.404Z,16.4
2019-02-05T04:01:43.295Z,16.4
2019-02-05T04:02:45.729Z,16.4
2019-02-05T04:03:47.885Z,16.4
2019-02-05T04:04:49.912Z,16.3
2019-02-05T04:05:52.356Z,16.3
2019-02-05T04:06:54.526Z,16.4
2019-02-05T04:07:56.683Z,16.3
2019-02-05T04:08:59.015Z,16.4
2019-02-05T04:10:02.035Z,16.3
2019-02-05T04:11:04.464Z,16.3
2019-02-05T04:12:06.611Z,16.2
2019-02-05T04:13:08.523Z,16.3
2019-02-05T04:14:10.691Z,16.2
2019-02-05T04:15:13.715Z,16.1
2019-02-05T04:16:15.877Z,16.2
2019-02-05T04:17:18.294Z,16.1
2019-02-05T04:18:20.732Z,16.2
2019-02-05T04:19:23.055Z,16.2
2019-02-05T04:20:25.585Z,16.2
2019-02-05T04:21:28.911Z,16.1
2019-02-05T04:22:31.348Z,16.1
2019-02-05T04:23:33.524Z,16.1
2019-02-05T04:24:35.976Z,16.1
2019-02-05T04:25:38.135Z,16
2019-02-05T04:26:40.573Z,16.1
2019-02-05T04:28:47.991Z,16.1
2019-02-05T04:29:50.164Z,16.1
2019-02-05T04:30:52.594Z,16.2
2019-02-05T04:31:55.183Z,16.1
2019-02-05T04:32:58.626Z,16
2019-02-05T04:34:00.802Z,16
2019-02-05T04:35:03.264Z,15.9
2019-02-05T04:36:05.695Z,16
2019-02-05T04:37:08.114Z,16.1
2019-02-05T04:38:10.278Z,16.1
2019-02-05T04:39:12.753Z,16
2019-02-05T04:40:15.203Z,16
2019-02-05T04:41:17.634Z,16
2019-02-05T04:42:20.368Z,15.8
2019-02-05T04:43:23.543Z,15.8
2019-02-05T04:44:25.627Z,15.9
2019-02-05T04:46:32.729Z,15.9
2019-02-05T04:47:35.158Z,16
2019-02-05T04:48:37.583Z,16
2019-02-05T04:49:39.460Z,16
2019-02-05T04:50:41.638Z,16
2019-02-05T04:51:43.802Z,15.9
2019-02-05T04:52:46.235Z,16.1
2019-02-05T04:53:48.684Z,15.9
2019-02-05T04:54:52.185Z,15.8
2019-02-05T04:55:54.606Z,15.9
2019-02-05T04:56:57.030Z,16.1
2019-02-05T04:59:04.434Z,16
2019-02-05T05:00:06.579Z,16
2019-02-05T05:01:08.723Z,16
2019-02-05T05:02:11.263Z,15.9
2019-02-05T05:03:13.690Z,16
2019-02-05T05:04:16.114Z,15.9
2019-02-05T05:05:18.786Z,15.9
2019-02-05T05:06:21.929Z,15.9
2019-02-05T05:07:24.084Z,15.8
2019-02-05T05:08:26.524Z,15.9
2019-02-05T05:09:28.944Z,15.9
2019-02-05T05:10:31.329Z,15.9
2019-02-05T05:11:33.774Z,15.9
2019-02-05T05:12:35.675Z,16
2019-02-05T05:13:38.096Z,15.9
2019-02-05T05:14:39.958Z,16
2019-02-05T05:15:42.118Z,15.9
2019-02-05T05:16:44.806Z,16
2019-02-05T05:17:46.954Z,15.9
2019-02-05T05:18:49.123Z,15.8
2019-02-05T05:19:51.570Z,15.8
2019-02-05T05:20:53.984Z,15.8
2019-02-05T05:21:56.415Z,16
2019-02-05T05:22:58.899Z,15.9
2019-02-05T05:24:01.042Z,15.8
2019-02-05T05:25:03.195Z,15.9
2019-02-05T05:26:05.970Z,15.8
2019-02-05T05:27:09.330Z,15.8
2019-02-05T05:28:11.754Z,15.9
2019-02-05T05:29:13.904Z,15.9
2019-02-05T05:30:16.054Z,15.8
2019-02-05T05:31:18.484Z,15.8
2019-02-05T05:32:20.628Z,15.7
2019-02-05T05:33:22.412Z,15.8
2019-02-05T05:34:24.595Z,15.8
2019-02-05T05:35:27.094Z,15.9
2019-02-05T05:36:33.214Z,15.8
2019-02-05T05:37:35.628Z,15.7
2019-02-05T05:38:38.635Z,15.8
2019-02-05T05:39:40.803Z,15.8
2019-02-05T05:40:43.238Z,15.8
2019-02-05T05:41:45.705Z,15.7
2019-02-05T05:42:47.572Z,15.9
2019-02-05T05:43:49.434Z,15.9
2019-02-05T05:44:51.705Z,15.9
2019-02-05T05:45:53.868Z,15.8
2019-02-05T05:46:56.296Z,15.8
2019-02-05T05:47:59.116Z,15.7
2019-02-05T05:49:02.232Z,15.8
2019-02-05T05:50:04.686Z,15.8
2019-02-05T05:51:06.845Z,15.8
2019-02-05T05:52:09.283Z,15.8
2019-02-05T05:53:11.706Z,15.8
2019-02-05T05:54:13.958Z,15.8
2019-02-05T05:55:16.491Z,15.8
2019-02-05T05:56:18.922Z,15.8
2019-02-05T05:57:21.514Z,15.7
2019-02-05T05:58:24.500Z,15.8
2019-02-05T05:59:27.995Z,15.8
2019-02-05T06:00:30.152Z,15.8
2019-02-05T06:01:32.038Z,15.8
2019-02-05T06:02:34.469Z,15.8
2019-02-05T06:03:36.881Z,15.7
2019-02-05T06:04:39.333Z,15.8
2019-02-05T06:05:41.504Z,15.7
2019-02-05T06:06:43.660Z,15.8
2019-02-05T06:07:46.191Z,15.8
2019-02-05T06:08:48.624Z,15.8
2019-02-05T06:09:51.995Z,15.8
2019-02-05T06:10:54.426Z,15.8
2019-02-05T06:11:56.585Z,15.8
2019-02-05T06:12:58.184Z,15.7
2019-02-05T06:14:00.690Z,15.7
2019-02-05T06:15:03.171Z,15.7
2019-02-05T06:16:05.375Z,15.8
2019-02-05T06:17:07.816Z,15.8
2019-02-05T06:18:10.263Z,15.8
2019-02-05T06:19:12.487Z,15.8
2019-02-05T06:20:15.974Z,15.8
2019-02-05T06:21:18.409Z,15.8
2019-02-05T06:22:20.294Z,15.8
2019-02-05T06:23:22.732Z,15.8
2019-02-05T06:24:24.887Z,15.7
2019-02-05T06:25:27.330Z,15.7
2019-02-05T06:26:29.805Z,15.8
2019-02-05T06:27:32.238Z,15.7
2019-02-05T06:28:35.489Z,15.8
2019-02-05T06:29:38.185Z,15.8
2019-02-05T06:30:41.370Z,15.8
2019-02-05T06:31:43.537Z,15.8
2019-02-05T06:32:45.972Z,15.8
2019-02-05T06:33:48.124Z,15.8
2019-02-05T06:34:50.555Z,15.8
2019-02-05T06:35:52.987Z,15.7
2019-02-05T06:36:55.414Z,15.8
2019-02-05T06:37:57.566Z,15.7
2019-02-05T06:38:59.706Z,15.8
2019-02-05T06:40:02.277Z,15.8
2019-02-05T06:41:05.694Z,15.7
2019-02-05T06:42:08.499Z,15.7
2019-02-05T06:43:11.563Z,15.7
2019-02-05T06:44:13.982Z,15.7
2019-02-05T06:45:16.189Z,15.7
2019-02-05T06:46:18.373Z,15.7
2019-02-05T06:47:20.525Z,15.8
2019-02-05T06:48:22.968Z,15.8
2019-02-05T06:49:25.127Z,15.7
2019-02-05T06:50:27.720Z,15.8
2019-02-05T06:51:30.406Z,15.7
2019-02-05T06:52:33.695Z,15.7
2019-02-05T06:53:36.124Z,15.7
2019-02-05T06:54:38.562Z,15.8
2019-02-05T06:55:41.005Z,15.7
2019-02-05T06:56:43.445Z,15.7
2019-02-05T06:57:45.976Z,15.7
2019-02-05T06:58:48.151Z,15.7
2019-02-05T06:59:50.398Z,15.8
2019-02-05T07:00:52.567Z,15.7
2019-02-05T07:01:55.245Z,15.7
2019-02-05T07:02:58.273Z,15.7
2019-02-05T07:04:00.712Z,15.7
2019-02-05T07:05:03.146Z,15.7
2019-02-05T07:06:05.588Z,15.7
2019-02-05T07:07:08.013Z,15.7
2019-02-05T07:08:10.175Z,15.7
2019-02-05T07:09:12.597Z,15.7
2019-02-05T07:10:15.039Z,15.7
2019-02-05T07:11:16.942Z,15.7
2019-02-05T07:12:19.705Z,15.6
2019-02-05T07:13:23.219Z,15.7
2019-02-05T07:14:25.665Z,15.7
2019-02-05T07:15:27.833Z,15.7
2019-02-05T07:16:30.117Z,15.7
2019-02-05T07:17:32.547Z,15.7
2019-02-05T07:18:34.695Z,15.8
2019-02-05T07:19:37.126Z,15.8
2019-02-05T07:20:39.275Z,15.6
2019-02-05T07:21:41.699Z,15.6
2019-02-05T07:22:44.431Z,15.7
2019-02-05T07:23:48.090Z,15.6
2019-02-05T07:24:50.589Z,15.7
2019-02-05T07:25:52.763Z,15.6
2019-02-05T07:26:55.231Z,15.8
2019-02-05T07:27:57.674Z,15.7
2019-02-05T07:30:04.596Z,15.6
2019-02-05T07:31:06.757Z,15.7
2019-02-05T07:32:08.652Z,15.5
2019-02-05T07:33:11.174Z,15.7
2019-02-05T07:34:14.006Z,15.7
2019-02-05T07:35:16.525Z,15.7
2019-02-05T07:36:19.017Z,15.7
2019-02-05T07:37:21.466Z,15.7
2019-02-05T07:38:23.926Z,15.7
2019-02-05T07:39:28.188Z,15.7
2019-02-05T07:40:30.351Z,15.7
2019-02-05T07:41:32.532Z,15.7
2019-02-05T07:42:34.985Z,15.7
2019-02-05T07:43:37.167Z,15.7
2019-02-05T07:44:40.683Z,15.7
2019-02-05T07:45:43.152Z,15.7
2019-02-05T07:46:45.600Z,15.7
2019-02-05T07:47:47.751Z,15.7
2019-02-05T07:48:49.921Z,15.7
2019-02-05T07:49:52.377Z,15.7
2019-02-05T07:50:54.261Z,15.6
2019-02-05T07:51:56.425Z,15.7
2019-02-05T07:52:58.897Z,15.6
2019-02-05T07:54:01.598Z,15.7
2019-02-05T07:55:04.317Z,15.8
2019-02-05T07:56:06.491Z,15.6
2019-02-05T07:57:09.031Z,15.6
2019-02-05T07:58:11.484Z,15.6
2019-02-05T07:59:13.656Z,15.8
2019-02-05T08:00:15.827Z,15.6
2019-02-05T08:01:18.318Z,15.7
2019-02-05T08:02:20.873Z,15.7
2019-02-05T08:03:23.366Z,15.6
2019-02-05T08:04:26.312Z,15.7
2019-02-05T08:05:28.533Z,15.6
2019-02-05T08:06:30.723Z,15.7
2019-02-05T08:07:32.985Z,15.7
2019-02-05T08:08:35.424Z,15.6
2019-02-05T08:09:37.416Z,15.7
2019-02-05T08:10:39.873Z,15.7
2019-02-05T08:11:42.419Z,15.6
2019-02-05T08:12:44.700Z,15.7
2019-02-05T08:13:47.148Z,15.7
2019-02-05T08:14:49.963Z,15.6
2019-02-05T08:15:52.113Z,15.6
2019-02-05T08:16:54.278Z,15.6
2019-02-05T08:17:56.441Z,15.6
2019-02-05T08:18:59.240Z,15.7
2019-02-05T08:20:01.667Z,15.7
2019-02-05T08:21:04.097Z,15.6
2019-02-05T08:22:06.507Z,15.7
2019-02-05T08:23:09.886Z,15.6
2019-02-05T08:24:12.841Z,15.5
2019-02-05T08:25:15.006Z,15.7
2019-02-05T08:26:17.444Z,15.7
2019-02-05T08:27:19.886Z,15.7
2019-02-05T08:28:22.328Z,15.7
2019-02-05T08:29:24.801Z,15.8
2019-02-05T08:30:26.711Z,15.6
2019-02-05T08:31:29.137Z,15.8
2019-02-05T08:32:31.752Z,15.7
2019-02-05T08:33:34.651Z,15.7
2019-02-05T08:34:37.246Z,15.7
2019-02-05T08:35:39.685Z,15.6
2019-02-05T08:36:41.546Z,15.7
2019-02-05T08:37:43.705Z,15.7
2019-02-05T08:38:46.145Z,15.7
2019-02-05T08:39:48.606Z,15.8
2019-02-05T08:40:50.770Z,15.7
2019-02-05T08:41:53.191Z,15.6
2019-02-05T08:42:55.884Z,15.7
2019-02-05T08:43:59.332Z,15.6
2019-02-05T08:45:01.231Z,15.5
2019-02-05T08:46:03.388Z,15.7
2019-02-05T08:47:05.848Z,15.7
2019-02-05T08:48:08.277Z,15.7
2019-02-05T08:49:10.729Z,15.6
2019-02-05T08:50:13.167Z,15.6
2019-02-05T08:51:15.635Z,15.7
2019-02-05T08:52:17.887Z,15.7
2019-02-05T08:53:20.429Z,15.6
2019-02-05T08:54:23.453Z,15.6
2019-02-05T08:55:25.626Z,15.6
2019-02-05T08:56:27.542Z,15.6
2019-02-05T08:57:29.988Z,15.6
2019-02-05T08:58:32.618Z,15.8
2019-02-05T08:59:34.794Z,15.7
2019-02-05T09:00:37.235Z,15.7
2019-02-05T09:01:39.674Z,15.7
2019-02-05T09:02:42.143Z,15.6
2019-02-05T09:03:44.568Z,15.7
2019-02-05T09:04:47.644Z,15.6
2019-02-05T09:05:49.815Z,15.7
2019-02-05T09:06:52.290Z,15.7
2019-02-05T09:07:54.474Z,15.6
2019-02-05T09:08:56.921Z,15.6
2019-02-05T09:09:59.226Z,15.7
2019-02-05T09:11:01.858Z,15.7
2019-02-05T09:12:04.027Z,15.6
2019-02-05T09:13:06.506Z,15.7
2019-02-05T09:15:13.964Z,15.7
2019-02-05T09:16:16.121Z,15.7
2019-02-05T09:17:18.546Z,15.7
2019-02-05T09:18:20.157Z,15.6
2019-02-05T09:19:22.329Z,15.7
2019-02-05T09:20:24.492Z,15.6
2019-02-05T09:21:26.682Z,15.7
2019-02-05T09:22:28.882Z,15.7
2019-02-05T09:23:31.155Z,15.7
2019-02-05T09:24:33.867Z,15.6
2019-02-05T09:25:37.488Z,15.7
2019-02-05T09:26:39.695Z,15.7
2019-02-05T09:27:41.842Z,15.5
2019-02-05T09:28:44.300Z,15.6
2019-02-05T09:29:46.764Z,15.7
2019-02-05T09:30:49.216Z,15.7
2019-02-05T09:31:51.397Z,15.7
2019-02-05T09:32:53.296Z,15.7
2019-02-05T09:33:55.626Z,15.6
2019-02-05T09:34:58.418Z,15.7
2019-02-05T09:36:01.422Z,15.7
2019-02-05T09:37:03.616Z,15.8
2019-02-05T09:38:06.057Z,15.5
2019-02-05T09:39:08.238Z,15.7
2019-02-05T09:40:10.683Z,15.6
2019-02-05T09:41:13.112Z,15.6
2019-02-05T09:42:15.585Z,15.7
2019-02-05T09:43:17.854Z,15.7
2019-02-05T09:44:20.496Z,15.6
2019-02-05T09:45:23.216Z,15.7
2019-02-05T09:46:26.878Z,15.7
2019-02-05T09:47:29.422Z,15.7
2019-02-05T09:48:31.874Z,15.8
2019-02-05T09:49:33.807Z,15.6
2019-02-05T09:51:40.923Z,15.6
2019-02-05T09:52:43.405Z,15.7
2019-02-05T09:53:45.907Z,15.7
2019-02-05T09:54:48.096Z,15.7
2019-02-05T09:55:51.332Z,15.7
2019-02-05T09:56:54.842Z,15.7
2019-02-05T09:57:56.969Z,15.6
2019-02-05T09:58:59.487Z,15.8
2019-02-05T10:00:01.639Z,15.6
2019-02-05T10:01:04.078Z,15.6
2019-02-05T10:02:06.530Z,15.5
2019-02-05T10:03:08.705Z,15.6
2019-02-05T10:04:11.165Z,15.5
2019-02-05T10:05:13.341Z,15.7
2019-02-05T10:06:16.095Z,15.6
2019-02-05T10:07:19.675Z,15.6
2019-02-05T10:08:22.107Z,15.7
2019-02-05T10:09:24.561Z,15.6
2019-02-05T10:10:27.004Z,15.7
2019-02-05T10:11:29.189Z,15.7
2019-02-05T10:12:31.056Z,15.6
2019-02-05T10:13:33.191Z,15.6
2019-02-05T10:14:35.676Z,15.7
2019-02-05T10:15:38.123Z,15.7
2019-02-05T10:16:40.676Z,15.7
2019-02-05T10:17:44.337Z,15.7
2019-02-05T10:18:46.926Z,15.6
2019-02-05T10:19:49.390Z,15.7
2019-02-05T10:20:51.823Z,15.7
2019-02-05T10:21:54.127Z,15.7
2019-02-05T10:22:55.758Z,15.8
2019-02-05T10:23:57.925Z,15.7
2019-02-05T10:25:00.343Z,15.6
2019-02-05T10:26:02.800Z,15.6
2019-02-05T10:27:05.519Z,15.5
2019-02-05T10:28:09.104Z,15.6
2019-02-05T10:29:11.655Z,15.7
2019-02-05T10:30:14.131Z,15.6
2019-02-05T10:31:16.592Z,15.7
2019-02-05T10:32:19.059Z,15.7
2019-02-05T10:33:20.967Z,15.6
2019-02-05T10:35:27.837Z,15.6
2019-02-05T10:36:29.984Z,15.7
2019-02-05T10:37:32.060Z,15.6
2019-02-05T10:38:34.735Z,15.7
2019-02-05T10:39:37.447Z,15.6
2019-02-05T10:40:39.952Z,15.7
2019-02-05T10:41:42.148Z,15.7
2019-02-05T10:42:44.819Z,15.6
2019-02-05T10:43:46.976Z,15.6
2019-02-05T10:44:49.442Z,15.6
2019-02-05T10:45:51.886Z,15.5
2019-02-05T10:46:54.340Z,15.7
2019-02-05T10:47:56.964Z,15.7
2019-02-05T10:48:59.865Z,15.7
2019-02-05T10:50:05.908Z,15.7
2019-02-05T10:51:08.061Z,15.6
2019-02-05T10:52:10.508Z,15.7
2019-02-05T10:53:12.972Z,15.7
2019-02-05T10:54:15.435Z,15.6
2019-02-05T10:55:17.866Z,15.7
2019-02-05T10:56:20.298Z,15.6
2019-02-05T10:57:22.732Z,15.7
2019-02-05T10:58:24.893Z,15.7
2019-02-05T10:59:27.694Z,15.6
2019-02-05T11:00:31.064Z,15.6
2019-02-05T11:01:33.276Z,15.6
2019-02-05T11:02:35.487Z,15.7
2019-02-05T11:03:37.924Z,15.6
2019-02-05T11:04:40.084Z,15.6
2019-02-05T11:05:42.513Z,15.6
2019-02-05T11:06:44.954Z,15.6
2019-02-05T11:07:47.384Z,15.6
2019-02-05T11:08:49.854Z,15.5
2019-02-05T11:09:52.686Z,15.7
2019-02-05T11:10:55.778Z,15.7
2019-02-05T11:11:58.224Z,15.6
2019-02-05T11:13:00.399Z,15.6
2019-02-05T11:14:02.851Z,15.6
2019-02-05T11:15:05.260Z,15.6
2019-02-05T11:16:07.156Z,15.7
2019-02-05T11:17:09.592Z,15.7
2019-02-05T11:18:11.757Z,15.5
2019-02-05T11:19:14.234Z,15.6
2019-02-05T11:20:17.074Z,15.7
2019-02-05T11:21:20.230Z,15.7
2019-02-05T11:22:22.390Z,15.5
2019-02-05T11:23:24.304Z,15.6
2019-02-05T11:24:26.475Z,15.6
2019-02-05T11:25:28.926Z,15.7
2019-02-05T11:26:31.368Z,15.7
2019-02-05T11:27:33.813Z,15.6
2019-02-05T11:28:35.984Z,15.6
2019-02-05T11:29:38.308Z,15.7
2019-02-05T11:30:40.299Z,15.7
2019-02-05T11:31:43.496Z,15.6
2019-02-05T11:32:45.936Z,15.7
2019-02-05T11:33:48.090Z,15.5
2019-02-05T11:34:50.589Z,15.6
2019-02-05T11:35:53.026Z,15.6
2019-02-05T11:36:55.450Z,15.6
2019-02-05T11:37:57.644Z,15.7
2019-02-05T11:38:59.828Z,15.5
2019-02-05T11:40:02.225Z,15.6
2019-02-05T11:41:04.909Z,15.6
2019-02-05T11:42:07.980Z,15.6
2019-02-05T11:43:10.421Z,15.8
2019-02-05T11:44:12.295Z,15.6
2019-02-05T11:45:14.743Z,15.7
2019-02-05T11:46:17.181Z,15.7
2019-02-05T11:47:19.368Z,15.6
2019-02-05T11:48:21.525Z,15.6
2019-02-05T11:49:23.701Z,15.6
2019-02-05T11:50:26.430Z,15.6
2019-02-05T11:51:29.833Z,15.7
2019-02-05T11:52:32.816Z,15.6
2019-02-05T11:53:35.265Z,15.6
2019-02-05T11:54:37.755Z,15.5
2019-02-05T11:55:39.910Z,15.6
2019-02-05T11:56:42.085Z,15.5
2019-02-05T11:57:44.514Z,15.5
2019-02-05T11:58:47.061Z,15.6
2019-02-05T11:59:48.959Z,15.6
2019-02-05T12:00:51.418Z,15.7
2019-02-05T12:01:54.548Z,15.5
2019-02-05T12:02:57.632Z,15.6
2019-02-05T12:03:59.792Z,15.7
2019-02-05T12:05:02.233Z,15.7
2019-02-05T12:06:04.405Z,15.7
2019-02-05T12:07:06.575Z,15.8
2019-02-05T12:08:09.017Z,15.5
2019-02-05T12:09:11.445Z,15.7
2019-02-05T12:10:13.896Z,15.7
2019-02-05T12:11:16.348Z,15.6
2019-02-05T12:12:19.569Z,15.6
2019-02-05T12:13:22.154Z,15.6
2019-02-05T12:14:24.612Z,15.6
2019-02-05T12:15:27.117Z,15.5
2019-02-05T12:16:29.568Z,15.6
2019-02-05T12:17:31.758Z,15.6
2019-02-05T12:18:33.666Z,15.7
2019-02-05T12:19:36.114Z,15.6
2019-02-05T12:20:38.295Z,15.6
2019-02-05T12:21:41.056Z,15.5
2019-02-05T12:22:44.232Z,15.5
2019-02-05T12:23:46.735Z,15.7
2019-02-05T12:24:48.644Z,15.6
2019-02-05T12:25:51.095Z,15.7
2019-02-05T12:26:53.549Z,15.6
2019-02-05T12:27:55.735Z,15.6
2019-02-05T12:28:58.175Z,15.5
2019-02-05T12:30:00.366Z,15.7
2019-02-05T12:31:02.827Z,15.6
2019-02-05T12:32:05.381Z,15.5
2019-02-05T12:33:08.449Z,15.6
2019-02-05T12:34:10.387Z,15.6
2019-02-05T12:35:12.543Z,15.6
2019-02-05T12:36:14.996Z,15.7
2019-02-05T12:37:17.188Z,15.7
2019-02-05T12:38:19.353Z,15.7
2019-02-05T12:39:21.807Z,15.7
2019-02-05T12:40:24.233Z,15.7
2019-02-05T12:41:26.704Z,15.7
2019-02-05T12:42:29.123Z,15.7
2019-02-05T12:43:32.782Z,15.7
2019-02-05T12:44:35.229Z,15.7
2019-02-05T12:45:37.675Z,15.6
2019-02-05T12:46:40.110Z,15.6
2019-02-05T12:47:41.995Z,15.6
2019-02-05T12:48:45.045Z,15.5
2019-02-05T12:49:47.468Z,15.6
2019-02-05T12:50:49.892Z,15.5
2019-02-05T12:51:52.046Z,15.6
2019-02-05T12:52:54.143Z,15.7
2019-02-05T12:53:57.063Z,15.7
2019-02-05T12:56:03.953Z,15.7
2019-02-05T12:57:06.374Z,15.5
2019-02-05T12:58:08.816Z,15.7
2019-02-05T12:59:10.684Z,15.6
2019-02-05T13:00:13.117Z,15.7
2019-02-05T13:01:15.554Z,15.6
2019-02-05T13:02:17.455Z,15.6
2019-02-05T13:03:19.880Z,15.8
2019-02-05T13:04:22.284Z,15.7
2019-02-05T13:05:25.792Z,15.5
2019-02-05T13:06:28.223Z,15.5
2019-02-05T13:07:30.359Z,15.6
2019-02-05T13:08:32.504Z,15.6
2019-02-05T13:09:34.945Z,15.6
2019-02-05T13:10:37.105Z,15.7
2019-02-05T13:11:39.536Z,15.7
2019-02-05T13:12:41.433Z,15.5
2019-02-05T13:13:43.921Z,15.7
2019-02-05T13:14:46.593Z,15.4
2019-02-05T13:15:49.140Z,15.6
2019-02-05T13:16:51.707Z,15.7
2019-02-05T13:17:54.149Z,15.6
2019-02-05T13:18:56.573Z,15.7
2019-02-05T13:19:59.014Z,15.7
2019-02-05T13:21:01.293Z,15.6
2019-02-05T13:22:03.725Z,15.5
2019-02-05T13:23:05.867Z,15.6
2019-02-05T13:24:08.386Z,15.6
2019-02-05T13:25:10.817Z,15.7
2019-02-05T13:26:13.524Z,15.6
2019-02-05T13:27:16.588Z,15.6
2019-02-05T13:28:18.831Z,15.7
2019-02-05T13:29:21.265Z,15.6
2019-02-05T13:30:23.695Z,15.8
2019-02-05T13:31:25.856Z,15.7
2019-02-05T13:32:28.008Z,15.6
2019-02-05T13:33:30.175Z,15.7
2019-02-05T13:34:32.321Z,15.6
2019-02-05T13:35:34.749Z,15.6
2019-02-05T13:36:36.993Z,15.7
2019-02-05T13:37:39.128Z,15.5
2019-02-05T13:38:42.499Z,15.5
2019-02-05T13:39:44.415Z,15.6
2019-02-05T13:40:46.285Z,15.6
2019-02-05T13:41:48.757Z,15.5
2019-02-05T13:42:51.185Z,15.7
2019-02-05T13:43:53.638Z,15.7
2019-02-05T13:44:56.064Z,15.7
2019-02-05T13:45:58.529Z,15.7
2019-02-05T13:47:00.400Z,15.5
2019-02-05T13:48:02.812Z,15.6
2019-02-05T13:49:05.514Z,15.7
2019-02-05T13:50:08.328Z,15.6
2019-02-05T13:51:10.753Z,15.7
2019-02-05T13:52:12.639Z,15.5
2019-02-05T13:53:14.907Z,15.6
2019-02-05T13:54:17.341Z,15.6
2019-02-05T13:55:19.783Z,15.7
2019-02-05T13:56:22.233Z,15.6
2019-02-05T13:57:24.681Z,15.6
2019-02-05T13:58:26.936Z,15.6
2019-02-05T13:59:29.533Z,15.7
2019-02-05T14:00:33.040Z,15.7
2019-02-05T14:01:35.200Z,15.5
2019-02-05T14:02:37.643Z,15.7
2019-02-05T14:03:39.532Z,15.6